Flight Track Log - Related Links

Times and Time Zones

All times are in EDT time to prevent confusion due to time zone crossing. See the CTL14 flight status page for this flight to view local times or setup timezone preferences in your user account.

Time Position Orientation Groundspeed Altitude Reporting Facility
EDT Latitude Longitude Course Direction KTS MPH feet Rate Location/Type
Fri 12:17:17 AM 42.1500 -87.8500 37° Northeast 150 173 2,600  Level Chicago TRACON
Fri 12:18:17 AM 42.1500 -87.8000 90° East 153 176 3,500 879 Climbing Chicago TRACON
Fri 12:19:13 AM 42.1603 -87.7428 76° East 157 181 4,300 821 Climbing Chicago Center
Fri 12:20:14 AM 42.1647 -87.6875 84° East 153 176 5,100 793 Climbing Chicago Center
Fri 12:21:14 AM 42.1622 -87.6281 93° East 161 185 5,900 694 Climbing Chicago Center
Fri 12:22:15 AM 42.1408 -87.5769 119° Southeast 158 182 6,500 645 Climbing Chicago Center
Fri 12:23:15 AM 42.1197 -87.5225 118° Southeast 163 188 7,200 645 Climbing Chicago Center
Fri 12:24:16 AM 42.0964 -87.4689 120° Southeast 165 190 7,800 595 Climbing Chicago Center
Fri 12:25:16 AM 42.0731 -87.4164 121° Southeast 165 190 8,400 595 Climbing Chicago Center
Fri 12:26:17 AM 42.0503 -87.3622 120° Southeast 166 191 9,000 347 Climbing Chicago Center
Fri 12:27:17 AM 42.0261 -87.3031 119° Southeast 175 201 9,100 50 Climbing Chicago Center
Fri 12:28:18 AM 41.9975 -87.2392 121° Southeast 192 221 9,100  Level Chicago Center
Fri 12:29:19 AM 41.9683 -87.1742 121° Southeast 200 230 9,100  Level Chicago Center
Fri 12:30:19 AM 41.9431 -87.1094 118° Southeast 199 229 9,100  Level Chicago Center
Fri 12:31:20 AM 41.9133 -87.0483 123° Southeast 196 226 9,100  Level Chicago Center
Fri 12:32:20 AM 41.8828 -86.9822 122° Southeast 204 235 9,100 -50 Level Chicago Center
Fri 12:33:21 AM 41.8500 -86.9092 121° Southeast 195 224 9,000 -50 Descending Chicago Center
Fri 12:34:21 AM 41.8203 -86.8453 122° Southeast 200 230 9,000  Level Chicago Center
Fri 12:35:22 AM 41.7922 -86.7822 121° Southeast 198 228 9,000  Level Chicago Center
Fri 12:36:22 AM 41.7642 -86.7206 121° Southeast 196 226 9,000 50 Level Chicago Center
Fri 12:37:22 AM 41.7411 -86.6672 120° Southeast 195 224 9,100 50 Climbing Chicago Center
Fri 12:38:23 AM 41.7119 -86.6050 122° Southeast 195 224 9,100  Level Chicago Center
Fri 12:39:23 AM 41.6847 -86.5425 120° Southeast 195 224 9,100  Level Chicago Center
Fri 12:40:24 AM 41.6561 -86.4803 122° Southeast 196 226 9,100 -50 Level Chicago Center
Fri 12:41:24 AM 41.6225 -86.4050 121° Southeast 197 227 9,000 -50 Descending Chicago Center
Fri 12:42:25 AM 41.5950 -86.3411 120° Southeast 198 228 9,000  Level Chicago Center
Fri 12:43:25 AM 41.5664 -86.2783 121° Southeast 199 229 9,000  Level Chicago Center
Fri 12:45:26 AM 41.5114 -86.1525 120° Southeast 196 226 9,000  Level Chicago Center
Fri 12:46:26 AM 41.4833 -86.0906 121° Southeast 196 226 9,000  Level Chicago Center
Fri 12:48:07 AM 41.4381 -85.9847 120° Southeast 197 227 9,000  Level Indianapolis Center
Fri 12:48:27 AM 41.4283 -85.9644 123° Southeast 198 228 9,000 74 Level Chicago Center
Fri 12:49:28 AM 41.4003 -85.9025 121° Southeast 197 227 9,100  Climbing Chicago Center
Fri 12:50:28 AM 41.3711 -85.8408 122° Southeast 198 228 9,000 -50 Descending Chicago Center
Fri 12:51:28 AM 41.3433 -85.7792 121° Southeast 195 224 9,000 50 Level Chicago Center
Fri 12:52:29 AM 41.3153 -85.7172 121° Southeast 196 226 9,100  Climbing Chicago Center
Fri 12:53:29 AM 41.2869 -85.6547 121° Southeast 198 228 9,000 -50 Descending Chicago Center
Fri 12:54:29 AM 41.2594 -85.5917 120° Southeast 198 228 9,000  Level Chicago Center
Fri 12:55:30 AM 41.2317 -85.5297 121° Southeast 197 227 9,000  Level Chicago Center
Fri 12:56:30 AM 41.2039 -85.4700 122° Southeast 193 222 9,000  Level Chicago Center
Fri 12:57:30 AM 41.1742 -85.4125 124° Southeast 189 217 9,000  Level Chicago Center
Fri 12:58:31 AM 41.1469 -85.3506 120° Southeast 194 223 9,000  Level Chicago Center
Fri 12:59:31 AM 41.1178 -85.2889 122° Southeast 198 228 9,000  Level Chicago Center
Fri 01:00:31 AM 41.0900 -85.2294 122° Southeast 194 223 9,000 50 Level Chicago Center
Fri 01:01:32 AM 41.0622 -85.1678 121° Southeast 193 222 9,100  Climbing Chicago Center
Fri 01:02:32 AM 41.0350 -85.1081 121° Southeast 192 221 9,000 -50 Descending Chicago Center
Fri 01:03:32 AM 41.0006 -85.0367 123° Southeast 193 222 9,000  Level Chicago Center
Fri 01:05:14 AM 40.9553 -84.9364 121° Southeast 192 221 9,000  Level Indianapolis Center
Fri 01:05:33 AM 40.9456 -84.9161 122° Southeast 191 220 9,000  Level Chicago Center
Fri 01:06:33 AM 40.9178 -84.8556 121° Southeast 192 221 9,000  Level Chicago Center
Fri 01:07:33 AM 40.8892 -84.7986 124° Southeast 189 217 9,000  Level Chicago Center
Fri 01:08:34 AM 40.8628 -84.7381 120° Southeast 190 219 9,000 -50 Level Chicago Center
Fri 01:09:34 AM 40.8344 -84.6781 122° Southeast 193 222 8,900 -200 Descending Chicago Center
Fri 01:10:34 AM 40.8078 -84.6164 120° Southeast 192 221 8,600 -250 Descending Chicago Center
Fri 01:11:34 AM 40.7767 -84.5547 124° Southeast 199 229 8,400 -198 Descending Chicago Center
Fri 01:12:35 AM 40.7494 -84.4931 120° Southeast 198 228 8,200 -198 Descending Chicago Center
Fri 01:13:35 AM 40.7231 -84.4300 119° Southeast 197 227 8,000 -200 Descending Chicago Center
Fri 01:14:35 AM 40.6989 -84.3647 116° Southeast 198 228 7,800 -235 Descending Chicago Center
Fri 01:15:17 AM 40.6789 -84.3208 121° Southeast 195 224 7,600 -240 Descending Indianapolis Center
Fri 01:15:50 AM 40.6622 -84.2869 123° Southeast 196 226 7,500 -98 Descending Indianapolis Center
Fri 01:16:18 AM 40.6486 -84.2603 124° Southeast 194 223 7,500 -200 Level Indianapolis Center
Fri 01:16:50 AM 40.6333 -84.2278 122° Southeast 193 222 7,300 -300 Descending Indianapolis Center
Fri 01:17:18 AM 40.6219 -84.1975 116° Southeast 194 223 7,200 -269 Descending Indianapolis Center
Fri 01:17:57 AM 40.6028 -84.1606 124° Southeast 198 228 7,000 -200 Descending Indianapolis Center
Fri 01:18:18 AM 40.5981 -84.1464 114° Southeast 195 224 7,000 -220 Level Indianapolis Center
Fri 01:19:19 AM 40.5681 -84.0814 121° Southeast 203 234 6,700 -300 Descending Indianapolis Center
Fri 01:19:58 AM 40.5475 -84.0350 120° Southeast 198 228 6,500 -200 Descending Indianapolis Center
Fri 01:20:19 AM 40.5408 -84.0203 121° Southeast 197 227 6,500 -197 Level Indianapolis Center
Fri 01:20:59 AM 40.5167 -83.9733 124° Southeast 195 224 6,300 -300 Descending Indianapolis Center
Fri 01:21:19 AM 40.5108 -83.9581 117° Southeast 197 227 6,200 -200 Descending Indianapolis Center
Fri 01:21:59 AM 40.4858 -83.9117 125° Southeast 195 224 6,100 -197 Descending Indianapolis Center
Fri 01:22:20 AM 40.4819 -83.8978 110° East 196 226 6,000 -218 Descending Indianapolis Center
Fri 01:22:54 AM 40.4625 -83.8594 124° Southeast 192 221 5,900 -200 Descending Indianapolis Center
Fri 01:23:20 AM 40.4539 -83.8381 118° Southeast 193 222 5,800 -200 Descending Indianapolis Center
Fri 01:23:54 AM 40.4314 -83.7978 126° Southeast 189 217 5,700 -98 Descending Indianapolis Center
Fri 01:24:21 AM 40.4247 -83.7806 117° Southeast 190 219 5,700 -295 Level Indianapolis Center
Fri 01:24:55 AM 40.4044 -83.7394 123° Southeast 192 221 5,400 -300 Descending Indianapolis Center
Fri 01:25:21 AM 40.3956 -83.7211 122° Southeast 191 220 5,400 -197 Level Indianapolis Center
Fri 01:25:56 AM 40.3733 -83.6781 124° Southeast 194 223 5,200 -300 Descending Indianapolis Center
Fri 01:26:21 AM 40.3658 -83.6600 119° Southeast 193 222 5,100 -200 Descending Indianapolis Center
Fri 01:26:56 AM 40.3442 -83.6197 125° Southeast 194 223 5,000 -100 Descending Indianapolis Center
Fri 01:27:21 AM 40.3375 -83.6000 114° Southeast 193 222 5,000 -197 Level Indianapolis Center
Fri 01:27:57 AM 40.3150 -83.5614 127° Southeast 193 222 4,800 -393 Descending Indianapolis Center
Fri 01:28:22 AM 40.3067 -83.5408 118° Southeast 193 222 4,600 -400 Descending Indianapolis Center
Fri 01:28:57 AM 40.2856 -83.5031 126° Southeast 196 226 4,400 -400 Descending Indianapolis Center
Fri 01:29:22 AM 40.2767 -83.4806 117° Southeast 195 224 4,200 -393 Descending Indianapolis Center
Fri 01:29:58 AM 40.2567 -83.4392 122° Southeast 200 230 4,000 -400 Descending Indianapolis Center
Fri 01:30:22 AM 40.2469 -83.4178 121° Southeast 198 228 3,800 -393 Descending Indianapolis Center
Fri 01:30:59 AM 40.2275 -83.3811 125° Southeast 195 224 3,600 -197 Descending Indianapolis Center
Fri 01:31:23 AM 40.2194 -83.3592 116° Southeast 198 228 3,600  Level Indianapolis Center

Login

Don't have an account? Register now (free) for customized features, flight alerts, and more!